createdAt,value
2023-04-09T00:01:19.745Z,12.30
2023-04-09T00:06:19.672Z,12.60
2023-04-09T00:11:19.605Z,11.60
2023-04-09T00:16:19.562Z,13.69
2023-04-09T00:21:19.475Z,13.89
2023-04-09T00:26:19.397Z,14.00
2023-04-09T00:31:20.766Z,13.19
2023-04-09T00:36:19.262Z,13.89
2023-04-09T00:41:19.224Z,14.60
2023-04-09T00:46:19.255Z,14.00
2023-04-09T00:51:19.081Z,14.19
2023-04-09T00:56:19.013Z,13.80
2023-04-09T01:01:18.975Z,13.80
2023-04-09T01:06:18.863Z,14.00
2023-04-09T01:11:18.796Z,15.50
2023-04-09T01:16:18.759Z,13.60
2023-04-09T01:21:18.657Z,14.60
2023-04-09T01:26:18.578Z,14.39
2023-04-09T01:31:18.543Z,14.19
2023-04-09T01:36:18.447Z,15.00
2023-04-09T01:41:18.384Z,15.30
2023-04-09T01:46:18.361Z,14.10
2023-04-09T01:51:18.251Z,15.19
2023-04-09T01:56:18.171Z,14.50
2023-04-09T02:01:18.148Z,14.50
2023-04-09T02:06:18.046Z,14.39
2023-04-09T02:11:17.976Z,14.30
2023-04-09T02:16:18.056Z,15.30
2023-04-09T02:21:17.839Z,14.19
2023-04-09T02:26:17.780Z,14.69
2023-04-09T02:31:17.741Z,13.80
2023-04-09T02:36:17.656Z,14.00
2023-04-09T02:41:17.574Z,14.80
2023-04-09T02:46:17.546Z,13.39
2023-04-09T02:51:17.457Z,13.60
2023-04-09T02:56:17.364Z,13.10
2023-04-09T03:01:17.348Z,13.89
2023-04-09T03:06:17.233Z,13.10
2023-04-09T03:11:17.181Z,13.69
2023-04-09T03:16:17.187Z,13.39
2023-04-09T03:21:17.055Z,12.60
2023-04-09T03:26:16.978Z,13.19
2023-04-09T03:31:16.967Z,13.80
2023-04-09T03:36:16.875Z,13.60
2023-04-09T03:41:16.790Z,14.19
2023-04-09T03:46:16.742Z,12.60
2023-04-09T03:51:16.652Z,12.80
2023-04-09T03:56:16.581Z,12.10
2023-04-09T04:01:16.536Z,11.60
2023-04-09T04:06:16.454Z,12.89
2023-04-09T04:11:16.388Z,13.50
2023-04-09T04:16:16.369Z,13.60
2023-04-09T04:21:16.242Z,13.69
2023-04-09T04:26:16.177Z,16.39
2023-04-09T04:31:16.140Z,16.39
2023-04-09T04:36:16.050Z,16.00
2023-04-09T04:41:15.984Z,14.19
2023-04-09T04:46:15.972Z,19.39
2023-04-09T04:51:15.850Z,17.50
2023-04-09T04:56:15.773Z,15.89
2023-04-09T05:01:15.776Z,14.50
2023-04-09T05:06:15.644Z,14.19
2023-04-09T05:11:15.585Z,14.19
2023-04-09T05:16:15.525Z,14.39
2023-04-09T05:21:15.456Z,16.20
2023-04-09T05:26:15.404Z,15.10
2023-04-09T05:31:15.367Z,13.60
2023-04-09T05:36:15.256Z,12.30
2023-04-09T05:41:15.191Z,12.19
2023-04-09T05:46:15.140Z,13.39
2023-04-09T05:51:15.182Z,15.00
2023-04-09T05:56:14.997Z,15.80
2023-04-09T06:01:14.921Z,14.89
2023-04-09T06:06:14.864Z,14.00
2023-04-09T06:11:14.802Z,14.80
2023-04-09T06:16:14.792Z,13.80
2023-04-09T06:21:14.667Z,13.50
2023-04-09T06:26:14.600Z,13.39
2023-04-09T06:31:14.620Z,12.80
2023-04-09T06:36:14.490Z,14.19
2023-04-09T06:41:14.410Z,13.60
2023-04-09T06:46:14.343Z,14.50
2023-04-09T06:51:14.250Z,15.80
2023-04-09T06:56:14.202Z,14.30
2023-04-09T07:01:14.121Z,13.60
2023-04-09T07:06:14.064Z,13.89
2023-04-09T07:11:13.984Z,13.19
2023-04-09T07:16:13.959Z,14.50
2023-04-09T07:21:13.852Z,13.69
2023-04-09T07:26:13.797Z,15.10
2023-04-09T07:31:13.764Z,13.39
2023-04-09T07:36:13.774Z,13.60
2023-04-09T07:41:13.597Z,14.30
2023-04-09T07:46:13.536Z,13.60
2023-04-09T07:51:13.461Z,13.89
2023-04-09T07:56:13.402Z,15.10
2023-04-09T08:01:13.333Z,14.19
2023-04-09T08:06:13.266Z,14.10
2023-04-09T08:11:13.188Z,15.30
2023-04-09T08:16:13.167Z,16.10
2023-04-09T08:21:13.054Z,14.50
2023-04-09T08:26:13.009Z,15.30
2023-04-09T08:31:12.920Z,14.30
2023-04-09T08:36:12.900Z,15.80
2023-04-09T08:41:14.095Z,14.80
2023-04-09T08:46:12.844Z,14.80
2023-04-09T08:51:12.646Z,14.60
2023-04-09T08:56:12.586Z,13.60
2023-04-09T09:01:13.623Z,13.69
2023-04-09T09:06:12.451Z,13.19
2023-04-09T09:11:12.385Z,13.50
2023-04-09T09:16:12.366Z,12.80
2023-04-09T09:21:12.243Z,13.30
2023-04-09T09:26:12.197Z,12.89
2023-04-09T09:31:12.182Z,14.80
2023-04-09T09:36:12.217Z,13.19
2023-04-09T09:41:11.986Z,13.69
2023-04-09T09:46:12.008Z,12.89
2023-04-09T09:51:11.859Z,12.60
2023-04-09T09:56:11.810Z,12.19
2023-04-09T10:01:11.743Z,11.50
2023-04-09T10:06:11.669Z,12.00
2023-04-09T10:11:11.585Z,12.89
2023-04-09T10:16:11.614Z,11.69
2023-04-09T10:21:11.442Z,11.89
2023-04-09T10:26:11.380Z,12.89
2023-04-09T10:31:11.354Z,11.89
2023-04-09T10:36:11.291Z,11.60
2023-04-09T10:41:11.185Z,12.50
2023-04-09T10:46:11.141Z,12.10
2023-04-09T10:51:11.056Z,11.80
2023-04-09T10:56:10.996Z,11.69
2023-04-09T11:01:10.919Z,11.69
2023-04-09T11:06:10.860Z,10.69
2023-04-09T11:11:10.784Z,11.10
2023-04-09T11:16:10.777Z,10.39
2023-04-09T11:21:10.656Z,11.10
2023-04-09T11:26:10.597Z,10.19
2023-04-09T11:31:10.640Z,9.39
2023-04-09T11:36:10.558Z,9.69
2023-04-09T11:41:10.376Z,9.00
2023-04-09T11:46:10.333Z,9.60
2023-04-09T11:51:10.255Z,8.30
2023-04-09T11:56:10.203Z,8.89
2023-04-09T12:01:10.110Z,8.39
2023-04-09T12:06:10.057Z,8.19
2023-04-09T12:11:09.977Z,7.30
2023-04-09T12:16:09.935Z,7.80
2023-04-09T12:21:09.846Z,7.80
2023-04-09T12:26:09.791Z,7.19
2023-04-09T12:31:09.713Z,8.60
2023-04-09T12:36:09.682Z,9.50
2023-04-09T12:41:09.596Z,8.69
2023-04-09T12:46:09.598Z,8.80
2023-04-09T12:51:09.442Z,9.80
2023-04-09T12:56:09.391Z,8.30
2023-04-09T13:01:09.406Z,8.00
2023-04-09T13:06:09.253Z,8.30
2023-04-09T13:11:09.173Z,8.19
2023-04-09T13:16:09.131Z,8.89
2023-04-09T13:21:09.034Z,9.19
2023-04-09T13:26:08.983Z,9.10
2023-04-09T13:31:08.950Z,9.10
2023-04-09T13:36:08.867Z,10.60
2023-04-09T13:41:08.780Z,9.19
2023-04-09T13:46:08.733Z,8.89
2023-04-09T13:51:08.645Z,8.30
2023-04-09T13:56:08.578Z,8.50
2023-04-09T14:01:08.554Z,8.69
2023-04-09T14:06:08.465Z,8.69
2023-04-09T14:11:08.370Z,8.10
2023-04-09T14:16:08.324Z,7.80
2023-04-09T14:21:10.129Z,7.00
2023-04-09T14:26:08.184Z,6.80
2023-04-09T14:31:08.189Z,6.59
2023-04-09T14:36:08.093Z,6.30
2023-04-09T14:41:07.980Z,6.09
2023-04-09T14:46:07.970Z,6.40
2023-04-09T14:51:07.862Z,7.19
2023-04-09T14:56:07.795Z,7.30
2023-04-09T15:01:07.755Z,6.80
2023-04-09T15:06:07.676Z,7.00
2023-04-09T15:11:07.604Z,6.50
2023-04-09T15:16:07.563Z,7.09
2023-04-09T15:21:07.477Z,5.69
2023-04-09T15:26:07.402Z,5.90
2023-04-09T15:31:07.353Z,5.50
2023-04-09T15:36:07.293Z,5.50
2023-04-09T15:41:07.432Z,5.90
2023-04-09T15:46:07.200Z,6.40
2023-04-09T15:51:07.100Z,5.69
2023-04-09T15:56:07.016Z,5.19
2023-04-09T16:01:07.014Z,5.50
2023-04-09T16:06:06.896Z,5.59
2023-04-09T16:11:06.846Z,5.09
2023-04-09T16:16:06.999Z,5.59
2023-04-09T16:21:06.695Z,5.09
2023-04-09T16:26:06.628Z,4.50
2023-04-09T16:31:06.573Z,5.09
2023-04-09T16:36:06.530Z,5.69
2023-04-09T16:41:06.448Z,4.69
2023-04-09T16:46:06.401Z,4.50
2023-04-09T16:51:06.286Z,4.59
2023-04-09T16:56:06.225Z,4.40
2023-04-09T17:01:06.156Z,4.40
2023-04-09T17:06:06.105Z,4.90
2023-04-09T17:11:06.021Z,5.50
2023-04-09T17:16:06.318Z,4.80
2023-04-09T17:21:05.887Z,4.90
2023-04-09T17:26:05.832Z,5.69
2023-04-09T17:31:05.790Z,6.30
2023-04-09T17:36:05.749Z,6.90
2023-04-09T17:41:07.374Z,6.59
2023-04-09T17:46:05.651Z,7.19
2023-04-09T17:51:05.510Z,8.30
2023-04-09T17:56:05.448Z,9.60
2023-04-09T18:01:05.471Z,22.00
2023-04-09T18:06:05.306Z,11.39
2023-04-09T18:11:12.894Z,11.10
2023-04-09T18:16:05.198Z,9.89
2023-04-09T18:21:05.097Z,10.80
2023-04-09T18:26:05.066Z,11.30
2023-04-09T18:31:04.992Z,10.50
2023-04-09T18:36:04.956Z,10.30
2023-04-09T18:41:04.833Z,10.60
2023-04-09T18:46:04.818Z,12.50
2023-04-09T18:51:04.692Z,11.30
2023-04-09T18:56:04.639Z,11.69
2023-04-09T19:01:04.555Z,13.30
2023-04-09T19:06:04.498Z,14.50
2023-04-09T19:11:04.425Z,14.39
2023-04-09T19:16:04.431Z,14.19
2023-04-09T19:21:04.292Z,15.19
2023-04-09T19:26:04.246Z,14.19
2023-04-09T19:31:04.188Z,12.89
2023-04-09T19:36:04.149Z,12.10
2023-04-09T19:41:04.027Z,12.50
2023-04-09T19:46:03.979Z,12.69
2023-04-09T19:51:03.939Z,12.39
2023-04-09T19:56:03.941Z,13.50
2023-04-09T20:01:03.996Z,14.50
2023-04-09T20:06:03.945Z,13.69
2023-04-09T20:11:03.626Z,14.10
2023-04-09T20:16:03.604Z,12.30
2023-04-09T20:21:03.493Z,11.50
2023-04-09T20:26:03.428Z,12.10
2023-04-09T20:31:03.359Z,12.30
2023-04-09T20:36:03.345Z,11.19
2023-04-09T20:41:03.237Z,12.10
2023-04-09T20:46:03.222Z,13.50
2023-04-09T20:51:03.098Z,13.69
2023-04-09T20:56:03.055Z,23.50
2023-04-09T21:01:02.962Z,20.20
2023-04-09T21:06:02.936Z,13.80
2023-04-09T21:11:02.819Z,12.89
2023-04-09T21:16:02.775Z,12.39
2023-04-09T21:21:02.694Z,12.00
2023-04-09T21:26:02.645Z,11.50
2023-04-09T21:31:02.624Z,12.60
2023-04-09T21:36:02.532Z,11.80
2023-04-09T21:41:02.451Z,11.00
2023-04-09T21:46:02.435Z,11.19
2023-04-09T21:51:02.304Z,11.19
2023-04-09T21:56:04.672Z,11.10
2023-04-09T22:01:02.255Z,11.19
2023-04-09T22:06:02.147Z,13.69
2023-04-09T22:11:02.036Z,17.70
2023-04-09T22:16:02.046Z,11.60
2023-04-09T22:21:01.909Z,10.89
2023-04-09T22:26:01.870Z,11.10
2023-04-09T22:31:01.818Z,11.30
2023-04-09T22:36:01.775Z,12.00
2023-04-09T22:41:01.631Z,11.30
2023-04-09T22:46:01.647Z,10.80
2023-04-09T22:51:01.500Z,9.80
2023-04-09T22:56:01.461Z,9.19
2023-04-09T23:01:01.365Z,9.39
2023-04-09T23:06:01.314Z,9.69
2023-04-09T23:11:01.236Z,8.80
2023-04-09T23:16:01.221Z,9.39
2023-04-09T23:21:01.114Z,8.69
2023-04-09T23:26:01.037Z,9.30
2023-04-09T23:31:01.016Z,9.00
2023-04-09T23:36:01.183Z,8.69
2023-04-09T23:41:00.843Z,9.19
2023-04-09T23:46:00.769Z,8.60
2023-04-09T23:51:00.699Z,9.00
2023-04-09T23:56:00.697Z,8.89
